Time;durP1;ratioP1;P1;durP2;ratioP2;P2;SDS_P1;SDS_P2;PMS_P1;PMS_P2;Temp;Humidity;BMP_temperature;BMP_pressure;BME280_temperature;BME280_humidity;BME280_pressure;Samples;Min_cycle;Max_cycle;Signal;HPM_P1;HPM_P2
2022/07/28 00:01:32;;;;;;;;;;;;;;;17.25;52.43;100452.25;5031882;28;1136;-57
2022/07/28 00:03:57;;;;;;;;;;;;;;;17.30;51.37;100451.38;5035048;28;1052;-58
2022/07/28 00:06:23;;;;;;;;;;;;;;;18.36;54.75;100441.59;5034908;28;1910;-57
2022/07/28 00:08:48;;;;;;;;;;;;;;;14.93;64.57;100446.44;5035678;28;1041;-57
2022/07/28 00:11:14;;;;;;;;;;;;;;;17.39;57.76;100457.91;5034417;28;1005;-57
2022/07/28 00:13:39;;;;;;;;;;;;;;;16.78;62.15;100450.84;5034759;28;1196;-57
2022/07/28 00:16:06;;;;;;;;;;;;;;;16.05;61.26;100469.50;5040813;28;1362;-57
2022/07/28 00:18:31;;;;;;;;;;;;;;;18.42;59.29;100476.19;5038585;28;958;-58
2022/07/28 00:20:56;;;;;;;;;;;;;;;15.26;65.19;100466.22;5036329;28;1159;-57
2022/07/28 00:23:22;;;;;;;;;;;;;;;17.58;62.24;100460.75;5034410;28;1037;-58
2022/07/28 00:25:47;;;;;;;;;;;;;;;18.03;61.72;100457.91;5039560;28;1902;-58
2022/07/28 00:28:13;;;;;;;;;;;;;;;15.23;67.71;100458.53;5041027;28;1061;-57
2022/07/28 00:30:38;;;;;;;;;;;;;;;17.95;62.15;100475.06;5038534;28;1101;-59
2022/07/28 00:33:04;;;;;;;;;;;;;;;15.68;65.74;100464.31;5038492;28;1025;-57
2022/07/28 00:35:29;;;;;;;;;;;;;;;16.55;61.03;100461.41;5038508;28;1025;-58
2022/07/28 00:37:54;;;;;;;;;;;;;;;17.17;55.44;100466.59;5041902;28;1124;-60
2022/07/28 00:40:20;;;;;;;;;;;;;;;17.13;53.79;100460.03;5038594;28;1021;-59
2022/07/28 00:42:45;;;;;;;;;;;;;;;18.01;55.35;100462.88;5038101;28;1144;-59
2022/07/28 00:45:11;;;;;;;;;;;;;;;15.20;62.86;100464.56;5038435;28;1909;-58
2022/07/28 00:47:36;;;;;;;;;;;;;;;17.87;60.81;100479.22;5038106;28;1160;-60
2022/07/28 00:50:02;;;;;;;;;;;;;;;18.53;60.22;100473.31;5038042;28;977;-61
2022/07/28 00:52:27;;;;;;;;;;;;;;;15.32;66.50;100469.78;5038268;28;1061;-63
2022/07/28 00:54:53;;;;;;;;;;;;;;;17.00;57.45;100466.97;5037735;28;1164;-61
2022/07/28 00:57:20;;;;;;;;;;;;;;;17.26;53.97;100478.63;5014496;28;1069;-61
2022/07/28 00:59:46;;;;;;;;;;;;;;;17.77;59.03;100477.38;5037963;28;1112;-60
2022/07/28 01:02:11;;;;;;;;;;;;;;;15.85;64.54;100481.34;5020083;28;1121;-57
2022/07/28 01:04:36;;;;;;;;;;;;;;;18.68;60.06;100484.16;5038041;28;1085;-59
2022/07/28 01:07:20;;;;;;;;;;;;;;;16.34;64.70;100481.78;5020614;28;1950;-58
2022/07/28 01:09:52;;;;;;;;;;;;;;;16.18;62.07;100492.78;5037663;28;1175;-58
2022/07/28 01:12:33;;;;;;;;;;;;;;;17.21;55.60;100488.84;5037610;28;1029;-57
2022/07/28 01:15:10;;;;;;;;;;;;;;;17.53;54.80;100496.56;5037640;28;1033;-58
2022/07/28 01:17:56;;;;;;;;;;;;;;;15.59;62.64;100487.91;5037627;28;990;-58
2022/07/28 01:20:28;;;;;;;;;;;;;;;17.85;60.74;100478.72;5038426;28;1504;-57
2022/07/28 01:23:16;;;;;;;;;;;;;;;18.29;60.70;100468.66;5031792;28;1088;-58
2022/07/28 01:25:45;;;;;;;;;;;;;;;15.52;65.58;100478.00;5028523;28;1902;-53
2022/07/28 01:28:10;;;;;;;;;;;;;;;17.05;56.49;100472.41;5037637;28;1052;-58
2022/07/28 01:30:35;;;;;;;;;;;;;;;17.27;53.83;100476.69;5038612;28;1021;-59
2022/07/28 01:33:03;;;;;;;;;;;;;;;17.26;52.24;100470.38;5040627;28;1006;-59
2022/07/28 01:35:29;;;;;;;;;;;;;;;17.97;53.71;100483.03;5022710;28;998;-61
2022/07/28 01:37:56;;;;;;;;;;;;;;;15.29;62.90;100484.03;5019450;28;1192;-55
2022/07/28 01:40:23;;;;;;;;;;;;;;;17.77;59.76;100485.63;5037157;28;975;-56
2022/07/28 01:42:50;;;;;;;;;;;;;;;18.68;60.03;100475.88;5021319;28;1207;-61
2022/07/28 01:45:15;;;;;;;;;;;;;;;15.08;66.56;100486.72;5037376;28;1970;-60
2022/07/28 01:47:42;;;;;;;;;;;;;;;16.84;57.75;100479.09;5037370;28;1144;-61
2022/07/28 01:50:07;;;;;;;;;;;;;;;17.23;54.30;100484.66;5036641;28;901;-60
2022/07/28 01:52:33;;;;;;;;;;;;;;;17.57;53.79;100488.56;5019557;28;990;-59
2022/07/28 01:54:59;;;;;;;;;;;;;;;16.35;61.83;100488.91;5019023;28;1211;-58
2022/07/28 01:57:25;;;;;;;;;;;;;;;16.69;60.82;100489.06;5037047;28;1073;-58
2022/07/28 01:59:51;;;;;;;;;;;;;;;18.93;58.68;100493.22;5036115;28;1148;-59
2022/07/28 02:02:17;;;;;;;;;;;;;;;15.37;65.22;100491.72;5036766;28;899;-59
2022/07/28 02:04:43;;;;;;;;;;;;;;;16.72;59.21;100488.50;5031949;28;1109;-59
2022/07/28 02:07:08;;;;;;;;;;;;;;;17.21;54.60;100500.63;5036784;28;1973;-59
2022/07/28 02:09:34;;;;;;;;;;;;;;;17.23;52.98;100503.91;5036933;28;1025;-59
2022/07/28 02:11:59;;;;;;;;;;;;;;;17.45;52.84;100495.22;5018922;28;1034;-59
2022/07/28 02:14:25;;;;;;;;;;;;;;;16.57;60.66;100511.34;5019324;28;1060;-59
2022/07/28 02:16:51;;;;;;;;;;;;;;;16.83;61.10;100514.00;5018520;28;1009;-59
2022/07/28 02:19:17;;;;;;;;;;;;;;;19.11;58.32;100525.50;5019847;28;1228;-58
2022/07/28 02:21:43;;;;;;;;;;;;;;;15.60;64.61;100517.78;5018790;28;1018;-58
2022/07/28 02:24:08;;;;;;;;;;;;;;;16.45;60.57;100529.22;5035607;28;1187;-57
2022/07/28 02:26:37;;;;;;;;;;;;;;;17.16;54.80;100530.06;5018697;28;1902;-57
2022/07/28 02:29:04;;;;;;;;;;;;;;;17.28;52.87;100527.81;5018686;28;1092;-57
2022/07/28 02:31:31;;;;;;;;;;;;;;;18.21;56.17;100538.91;5018187;28;1109;-58
2022/07/28 02:33:59;;;;;;;;;;;;;;;15.27;63.17;100541.00;5036266;28;1073;-60
2022/07/28 02:36:26;;;;;;;;;;;;;;;18.49;58.89;100547.41;5036119;28;1093;-61
2022/07/28 02:38:51;;;;;;;;;;;;;;;16.47;63.59;100551.75;5018584;28;1022;-60
2022/07/28 02:41:18;;;;;;;;;;;;;;;15.94;62.97;100552.91;5020205;28;1196;-59
2022/07/28 02:43:47;;;;;;;;;;;;;;;17.18;56.34;100550.66;5018644;28;1038;-58
2022/07/28 02:46:13;;;;;;;;;;;;;;;16.53;61.18;100553.34;5018565;28;1983;-58
2022/07/28 02:48:38;;;;;;;;;;;;;;;16.56;63.36;100561.03;5035644;28;986;-58
2022/07/28 02:51:04;;;;;;;;;;;;;;;18.94;59.37;100547.19;5034183;28;1219;-59
2022/07/28 02:53:29;;;;;;;;;;;;;;;15.53;64.98;100559.13;5018031;28;1061;-59
2022/07/28 02:55:55;;;;;;;;;;;;;;;17.73;63.14;100556.06;5036080;28;1231;-59
2022/07/28 02:58:21;;;;;;;;;;;;;;;18.10;61.37;100554.72;5019077;28;1013;-60
2022/07/28 03:00:50;;;;;;;;;;;;;;;15.34;66.34;100556.06;5035461;28;1148;-59
2022/07/28 03:03:16;;;;;;;;;;;;;;;18.55;61.57;100565.53;5035991;28;990;-60
2022/07/28 03:05:41;;;;;;;;;;;;;;;15.79;65.16;100564.66;5031185;28;1967;-60
2022/07/28 03:08:07;;;;;;;;;;;;;;;16.70;62.67;100566.75;5017103;28;1203;-62
2022/07/28 03:10:32;;;;;;;;;;;;;;;18.22;61.04;100562.56;5037659;28;1206;-58
2022/07/28 03:12:59;;;;;;;;;;;;;;;15.30;67.69;100563.19;5040741;28;1467;-58
2022/07/28 03:15:24;;;;;;;;;;;;;;;18.58;61.91;100570.47;5035682;28;966;-65
2022/07/28 03:17:50;;;;;;;;;;;;;;;16.25;64.76;100559.16;5017744;28;1296;-60
2022/07/28 03:20:15;;;;;;;;;;;;;;;16.07;62.81;100555.09;5036409;28;1188;-61
2022/07/28 03:22:41;;;;;;;;;;;;;;;17.14;56.00;100571.56;5029242;28;966;-60
2022/07/28 03:25:07;;;;;;;;;;;;;;;17.33;53.56;100573.66;5035509;28;914;-62
2022/07/28 03:27:34;;;;;;;;;;;;;;;17.29;52.13;100570.66;5017877;28;1906;-60
2022/07/28 03:30:05;;;;;;;;;;;;;;;18.23;56.30;100568.88;5021841;28;1033;-61
2022/07/28 03:32:32;;;;;;;;;;;;;;;15.42;63.03;100576.66;5035494;28;1084;-60
2022/07/28 03:34:57;;;;;;;;;;;;;;;18.38;59.50;100588.00;5019960;28;1176;-61
2022/07/28 03:37:25;;;;;;;;;;;;;;;16.49;64.11;100582.47;5036216;28;1175;-62
2022/07/28 03:39:50;;;;;;;;;;;;;;;16.01;63.55;100580.84;5018522;28;1104;-62
2022/07/28 03:42:17;;;;;;;;;;;;;;;17.10;55.90;100571.28;5035778;28;1034;-60
2022/07/28 03:44:43;;;;;;;;;;;;;;;18.33;57.75;100577.06;5040415;28;1160;-60
2022/07/28 03:47:08;;;;;;;;;;;;;;;15.11;65.23;100575.72;5018539;28;1913;-60
2022/07/28 03:49:34;;;;;;;;;;;;;;;17.70;59.27;100578.66;5034518;28;1073;-61
2022/07/28 03:51:59;;;;;;;;;;;;;;;16.52;63.43;100573.66;5026573;28;1536;-60
2022/07/28 03:54:24;;;;;;;;;;;;;;;16.16;61.64;100581.94;5038877;28;1349;-61
2022/07/28 03:56:50;;;;;;;;;;;;;;;18.55;59.97;100586.72;5040594;28;1065;-63
2022/07/28 03:59:16;;;;;;;;;;;;;;;15.22;65.15;100589.22;5039188;28;1006;-62
2022/07/28 04:01:43;;;;;;;;;;;;;;;16.63;58.79;100582.72;5039196;28;1223;-60
2022/07/28 04:04:09;;;;;;;;;;;;;;;17.08;54.72;100584.50;5039504;28;979;-63
2022/07/28 04:06:35;;;;;;;;;;;;;;;18.19;56.72;100584.31;5039041;28;1914;-63
2022/07/28 04:09:00;;;;;;;;;;;;;;;15.29;66.09;100590.84;5039252;28;999;-59
2022/07/28 04:11:25;;;;;;;;;;;;;;;18.53;60.25;100583.47;5039141;28;966;-62
2022/07/28 04:13:51;;;;;;;;;;;;;;;16.55;63.48;100586.81;5033405;28;808;-61
2022/07/28 04:16:16;;;;;;;;;;;;;;;16.21;61.99;100587.44;5038946;28;994;-62
2022/07/28 04:18:42;;;;;;;;;;;;;;;17.14;55.65;100588.03;5039833;28;1398;-62
2022/07/28 04:21:07;;;;;;;;;;;;;;;17.26;53.41;100584.97;5043929;28;1053;-62
2022/07/28 04:23:32;;;;;;;;;;;;;;;17.63;53.66;100583.66;5039237;28;1025;-62
2022/07/28 04:25:58;;;;;;;;;;;;;;;15.96;61.13;100583.59;5043398;28;1913;-61
2022/07/28 04:28:24;;;;;;;;;;;;;;;17.14;60.65;100592.69;5038906;28;1030;-60
2022/07/28 04:30:49;;;;;;;;;;;;;;;19.15;58.80;100594.59;5040344;28;1167;-61
2022/07/28 04:33:16;;;;;;;;;;;;;;;15.17;65.21;100600.13;5039956;28;1038;-62
2022/07/28 04:35:42;;;;;;;;;;;;;;;16.85;58.05;100598.84;5038489;28;1064;-62
2022/07/28 04:38:07;;;;;;;;;;;;;;;17.21;54.30;100596.00;5042045;28;958;-60
2022/07/28 04:40:33;;;;;;;;;;;;;;;17.74;54.50;100598.13;5038645;28;1017;-67
2022/07/28 04:42:58;;;;;;;;;;;;;;;15.32;62.08;100604.84;5038394;28;864;-67
2022/07/28 04:45:24;;;;;;;;;;;;;;;17.64;60.45;100609.22;5038163;28;1977;-66
2022/07/28 04:47:50;;;;;;;;;;;;;;;18.96;58.53;100609.16;5038124;28;1072;-64
2022/07/28 04:50:17;;;;;;;;;;;;;;;15.08;66.50;100609.13;5038195;28;1037;-62
2022/07/28 04:52:47;;;;;;;;;;;;;;;16.96;56.81;100605.97;5037874;28;1048;-64
2022/07/28 04:55:12;;;;;;;;;;;;;;;17.30;53.75;100609.97;5041697;28;1053;-62
2022/07/28 04:57:38;;;;;;;;;;;;;;;17.71;54.24;100616.03;5038245;28;1073;-60
2022/07/28 05:00:11;;;;;;;;;;;;;;;15.65;62.65;100608.22;5038365;28;1037;-62
2022/07/28 05:02:36;;;;;;;;;;;;;;;17.65;60.19;100611.66;5037966;28;1097;-60
2022/07/28 05:05:01;;;;;;;;;;;;;;;19.10;58.35;100611.22;5038228;28;1088;-60
2022/07/28 05:07:27;;;;;;;;;;;;;;;15.05;65.18;100607.75;5037579;28;1909;-62
2022/07/28 05:09:52;;;;;;;;;;;;;;;16.84;58.34;100616.41;5037761;28;1060;-61
2022/07/28 05:12:18;;;;;;;;;;;;;;;17.24;54.81;100611.91;5034356;28;1231;-66
2022/07/28 05:14:43;;;;;;;;;;;;;;;17.36;52.70;100615.16;5018953;28;1016;-62
2022/07/28 05:17:08;;;;;;;;;;;;;;;17.32;51.90;100616.81;5039807;28;999;-61
2022/07/28 05:19:34;;;;;;;;;;;;;;;17.46;52.70;100617.03;5041073;28;966;-60
2022/07/28 05:21:59;;;;;;;;;;;;;;;16.01;61.85;100622.00;5039595;28;1057;-62
2022/07/28 05:24:25;;;;;;;;;;;;;;;17.34;60.79;100613.78;5039667;28;1235;-61
2022/07/28 05:26:50;;;;;;;;;;;;;;;19.17;59.50;100625.47;5037798;28;1883;-59
2022/07/28 05:29:15;;;;;;;;;;;;;;;15.36;65.36;100630.63;5044854;28;1207;-60
2022/07/28 05:31:41;;;;;;;;;;;;;;;17.58;63.29;100630.41;5041069;28;994;-62
2022/07/28 05:34:06;;;;;;;;;;;;;;;17.13;64.19;100629.53;5040252;28;1167;-65
2022/07/28 05:36:32;;;;;;;;;;;;;;;15.58;66.39;100632.31;5033283;28;1084;-64
2022/07/28 05:38:58;;;;;;;;;;;;;;;17.01;57.48;100638.94;5039352;28;899;-65
2022/07/28 05:41:23;;;;;;;;;;;;;;;17.32;54.34;100632.47;5039410;28;1021;-67
2022/07/28 05:43:49;;;;;;;;;;;;;;;17.37;52.69;100622.28;5038185;28;1180;-66
2022/07/28 05:46:15;;;;;;;;;;;;;;;17.36;51.84;100634.38;5043857;28;1973;-66
2022/07/28 05:48:40;;;;;;;;;;;;;;;18.25;54.78;100644.53;5046517;28;1085;-63
2022/07/28 05:51:06;;;;;;;;;;;;;;;17.53;58.76;100638.69;5045585;28;851;-64
2022/07/28 05:53:31;;;;;;;;;;;;;;;17.88;58.03;100639.56;5044186;28;1172;-63
2022/07/28 05:55:57;;;;;;;;;;;;;;;17.88;57.85;100647.81;5045288;28;1006;-62
2022/07/28 05:58:22;;;;;;;;;;;;;;;17.87;57.76;100654.44;5041284;28;1222;-60
2022/07/28 06:00:48;;;;;;;;;;;;;;;17.83;57.93;100659.69;5043579;28;1140;-60
2022/07/28 06:03:13;;;;;;;;;;;;;;;17.85;58.28;100665.75;5036817;28;1078;-62
2022/07/28 06:05:38;;;;;;;;;;;;;;;17.82;58.04;100657.22;5042616;28;1911;-62
2022/07/28 06:08:04;;;;;;;;;;;;;;;17.75;58.03;100669.38;5039198;28;1033;-60
2022/07/28 06:10:57;;;;;;;;;;;;;;;17.79;57.79;100666.84;5040181;28;1164;-64
2022/07/28 06:13:15;;;;;;;;;;;;;;;17.72;57.85;100660.84;5037733;28;1524;-60
2022/07/28 06:15:40;;;;;;;;;;;;;;;17.69;58.08;100662.25;5039572;28;1172;-62
2022/07/28 06:18:06;;;;;;;;;;;;;;;17.65;57.77;100658.41;5047365;28;1030;-62
2022/07/28 06:20:31;;;;;;;;;;;;;;;17.65;57.77;100661.16;5036995;28;1179;-63
2022/07/28 06:22:56;;;;;;;;;;;;;;;17.66;57.67;100671.06;5036821;28;994;-62
2022/07/28 06:25:26;;;;;;;;;;;;;;;17.67;57.86;100666.38;5042799;28;974;-62
2022/07/28 06:27:52;;;;;;;;;;;;;;;17.60;57.83;100669.47;5040634;28;923;-62
2022/07/28 06:30:17;;;;;;;;;;;;;;;17.54;57.85;100668.63;5041294;28;998;-62
2022/07/28 06:32:43;;;;;;;;;;;;;;;17.56;58.03;100671.13;5040680;28;1301;-61
2022/07/28 06:35:08;;;;;;;;;;;;;;;17.53;58.07;100672.50;5047332;28;1179;-63
2022/07/28 06:37:34;;;;;;;;;;;;;;;17.54;57.88;100673.31;5041645;28;1049;-61
2022/07/28 06:39:59;;;;;;;;;;;;;;;17.56;57.89;100671.94;5042011;28;1101;-64
2022/07/28 06:42:25;;;;;;;;;;;;;;;17.49;57.79;100678.84;5039774;28;1088;-63
2022/07/28 06:44:50;;;;;;;;;;;;;;;17.50;58.07;100683.25;5040887;28;1096;-61
2022/07/28 06:47:16;;;;;;;;;;;;;;;17.51;57.83;100680.22;5038699;28;1981;-65
2022/07/28 06:49:41;;;;;;;;;;;;;;;17.48;58.03;100685.47;5040087;28;1053;-60
2022/07/28 06:52:07;;;;;;;;;;;;;;;17.49;58.02;100684.34;5042174;28;1129;-62
2022/07/28 06:54:32;;;;;;;;;;;;;;;17.42;57.93;100688.22;5042634;28;1081;-65
2022/07/28 06:56:58;;;;;;;;;;;;;;;17.42;57.92;100690.16;5038631;28;1062;-63
2022/07/28 06:59:23;;;;;;;;;;;;;;;17.44;58.06;100697.00;5037374;28;1164;-63
2022/07/28 07:01:49;;;;;;;;;;;;;;;17.39;57.92;100688.78;5043175;28;962;-63
2022/07/28 07:04:14;;;;;;;;;;;;;;;17.39;58.08;100699.78;5038582;28;811;-61
2022/07/28 07:06:40;;;;;;;;;;;;;;;17.41;57.86;100694.81;5044374;28;1910;-62
2022/07/28 07:09:05;;;;;;;;;;;;;;;17.44;58.26;100702.50;5041448;28;1030;-64
2022/07/28 07:11:30;;;;;;;;;;;;;;;17.41;58.06;100702.25;5043301;28;1089;-66
2022/07/28 07:13:56;;;;;;;;;;;;;;;17.39;58.14;100698.94;5036298;28;1045;-61
2022/07/28 07:16:21;;;;;;;;;;;;;;;17.37;57.79;100693.72;5037681;28;1262;-63
2022/07/28 07:18:51;;;;;;;;;;;;;;;17.39;57.94;100694.28;5035440;28;1108;-62
2022/07/28 07:21:17;;;;;;;;;;;;;;;17.33;58.04;100700.88;5039913;28;1021;-62
2022/07/28 07:23:42;;;;;;;;;;;;;;;17.37;57.79;100701.97;5034955;28;1123;-61
2022/07/28 07:26:08;;;;;;;;;;;;;;;17.38;57.74;100700.88;5041833;28;1982;-62
2022/07/28 07:28:33;;;;;;;;;;;;;;;17.35;57.78;100711.59;5037931;28;974;-62
2022/07/28 07:30:59;;;;;;;;;;;;;;;17.33;57.78;100709.13;5037427;28;998;-63
2022/07/28 07:33:24;;;;;;;;;;;;;;;17.37;57.66;100707.47;5036666;28;1148;-63
2022/07/28 07:35:50;;;;;;;;;;;;;;;17.31;57.53;100707.78;5035819;28;1064;-63
2022/07/28 07:38:15;;;;;;;;;;;;;;;17.30;57.62;100701.47;5042181;28;1049;-63
2022/07/28 07:40:41;;;;;;;;;;;;;;;17.33;57.57;100711.06;5041384;28;1101;-64
2022/07/28 07:43:06;;;;;;;;;;;;;;;17.29;57.84;100713.53;5040891;28;1006;-61
2022/07/28 07:45:33;;;;;;;;;;;;;;;17.30;57.65;100717.94;5043228;28;1980;-63
2022/07/28 07:47:59;;;;;;;;;;;;;;;17.25;57.78;100726.19;5040040;28;1026;-66
2022/07/28 07:50:24;;;;;;;;;;;;;;;17.27;57.97;100724.00;5039893;28;1069;-61
2022/07/28 07:52:50;;;;;;;;;;;;;;;17.30;57.74;100728.94;5039018;28;1104;-58
2022/07/28 07:55:15;;;;;;;;;;;;;;;17.26;57.68;100725.09;5037175;28;1077;-60
2022/07/28 07:57:41;;;;;;;;;;;;;;;17.27;57.65;100729.50;5036660;28;1136;-59
2022/07/28 08:00:07;;;;;;;;;;;;;;;17.21;58.04;100725.13;5019855;28;1136;-62
2022/07/28 08:02:32;;;;;;;;;;;;;;;17.26;57.76;100730.59;5036543;28;1151;-61
2022/07/28 08:04:59;;;;;;;;;;;;;;;17.21;57.80;100727.88;5034568;28;922;-61
2022/07/28 08:07:24;;;;;;;;;;;;;;;17.24;57.81;100719.09;5034577;28;1902;-61
2022/07/28 08:09:50;;;;;;;;;;;;;;;17.18;57.74;100711.94;5034992;28;1100;-60
2022/07/28 08:12:15;;;;;;;;;;;;;;;17.17;57.94;100721.31;5036096;28;944;-60
2022/07/28 08:14:41;;;;;;;;;;;;;;;17.24;57.77;100719.09;5043777;28;1045;-59
2022/07/28 08:17:06;;;;;;;;;;;;;;;17.24;57.70;100719.88;5039132;28;905;-63
2022/07/28 08:19:32;;;;;;;;;;;;;;;17.22;57.71;100716.63;5038454;28;1128;-59
2022/07/28 08:21:57;;;;;;;;;;;;;;;17.23;57.71;100722.91;5041121;28;1057;-59
2022/07/28 08:24:22;;;;;;;;;;;;;;;17.18;57.60;100720.19;5040410;28;1132;-64
2022/07/28 08:26:49;;;;;;;;;;;;;;;17.17;57.78;100718.56;5039813;28;1977;-62
2022/07/28 08:29:15;;;;;;;;;;;;;;;17.20;57.84;100724.28;5042115;28;927;-59
2022/07/28 08:31:40;;;;;;;;;;;;;;;17.18;57.79;100723.78;5038216;28;1005;-57
2022/07/28 08:34:06;;;;;;;;;;;;;;;17.21;57.79;100725.13;5039060;28;1168;-59
2022/07/28 08:36:31;;;;;;;;;;;;;;;17.19;57.57;100727.31;5035484;28;1069;-60
2022/07/28 08:38:57;;;;;;;;;;;;;;;17.18;57.55;100733.91;5036040;28;1120;-59
2022/07/28 08:41:25;;;;;;;;;;;;;;;17.14;57.88;100735.56;5034858;28;1152;-59
2022/07/28 08:43:51;;;;;;;;;;;;;;;17.14;57.96;100738.31;5036886;28;1001;-58
2022/07/28 08:46:16;;;;;;;;;;;;;;;17.17;57.76;100740.53;5020333;28;1981;-58
2022/07/28 08:48:42;;;;;;;;;;;;;;;17.13;57.81;100739.44;5021053;28;1073;-61
2022/07/28 08:51:10;;;;;;;;;;;;;;;17.17;57.77;100737.78;5038382;28;958;-60
2022/07/28 08:53:36;;;;;;;;;;;;;;;17.16;57.75;100738.88;5022689;28;1220;-58
2022/07/28 08:56:05;;;;;;;;;;;;;;;17.16;57.92;100727.88;5025375;28;1089;-58
2022/07/28 08:58:31;;;;;;;;;;;;;;;17.14;57.63;100738.31;5020907;28;1025;-58
2022/07/28 09:00:56;;;;;;;;;;;;;;;17.15;57.88;100742.72;5020908;28;1133;-58
2022/07/28 09:03:22;;;;;;;;;;;;;;;17.13;57.67;100740.25;5021164;28;1069;-58
2022/07/28 09:05:49;;;;;;;;;;;;;;;17.21;57.57;100741.63;5019481;28;1914;-58
2022/07/28 09:08:16;;;;;;;;;;;;;;;17.21;57.59;100747.94;5019705;28;1196;-58
2022/07/28 09:10:41;;;;;;;;;;;;;;;17.14;57.86;100744.66;5018910;28;1162;-58
2022/07/28 09:13:06;;;;;;;;;;;;;;;17.15;57.71;100746.28;5021544;28;958;-58
2022/07/28 09:15:33;;;;;;;;;;;;;;;17.13;57.83;100751.25;5026216;28;998;-58
2022/07/28 09:17:58;;;;;;;;;;;;;;;17.13;57.95;100750.44;5024490;28;1057;-57
2022/07/28 09:20:24;;;;;;;;;;;;;;;17.12;57.89;100746.03;5022492;28;1174;-58
2022/07/28 09:22:53;;;;;;;;;;;;;;;17.15;57.92;100748.22;5023070;28;997;-59
2022/07/28 09:25:18;;;;;;;;;;;;;;;17.08;57.89;100752.09;5022691;28;1042;-59
2022/07/28 09:27:44;;;;;;;;;;;;;;;17.12;57.79;100749.59;5024549;28;1988;-59
2022/07/28 09:30:10;;;;;;;;;;;;;;;17.14;57.75;100744.66;5021751;28;982;-60
2022/07/28 09:32:35;;;;;;;;;;;;;;;17.09;57.88;100745.47;5023220;28;1230;-59
2022/07/28 09:35:00;;;;;;;;;;;;;;;17.12;57.89;100746.84;5018188;28;982;-57
2022/07/28 09:37:26;;;;;;;;;;;;;;;17.14;57.93;100747.41;5025512;28;1113;-62
2022/07/28 09:39:53;;;;;;;;;;;;;;;17.13;57.58;100756.75;5021278;28;1061;-59
2022/07/28 09:42:19;;;;;;;;;;;;;;;17.12;57.82;100751.53;5017961;28;1169;-60
2022/07/28 09:44:44;;;;;;;;;;;;;;;17.17;57.59;100751.53;5019822;28;1037;-58
2022/07/28 09:47:20;;;;;;;;;;;;;;;17.14;57.79;100754.81;5019232;28;1910;-57
2022/07/28 09:49:45;;;;;;;;;;;;;;;17.17;57.79;100757.03;5017443;28;1105;-57
2022/07/28 09:52:10;;;;;;;;;;;;;;;17.09;58.06;100750.97;5012486;28;1235;-59
2022/07/28 09:54:36;;;;;;;;;;;;;;;17.13;57.73;100751.25;5031131;28;1268;-58
2022/07/28 09:57:01;;;;;;;;;;;;;;;17.08;57.76;100754.84;5030678;28;1231;-63
2022/07/28 09:59:38;;;;;;;;;;;;;;;17.09;57.81;100761.16;5016804;28;1301;-60
2022/07/28 10:02:04;;;;;;;;;;;;;;;17.12;57.79;100760.59;5032958;28;1220;-61
2022/07/28 10:04:30;;;;;;;;;;;;;;;17.10;57.82;100760.88;5041821;28;994;-63
2022/07/28 10:07:01;;;;;;;;;;;;;;;17.09;57.68;100750.97;5044299;28;1980;-60
2022/07/28 10:09:27;;;;;;;;;;;;;;;17.14;57.74;100763.06;5048811;28;1053;-61
2022/07/28 10:11:52;;;;;;;;;;;;;;;17.12;57.86;100766.06;5044878;28;912;-62
2022/07/28 10:14:22;;;;;;;;;;;;;;;17.10;57.88;100758.13;5043221;28;1093;-64
2022/07/28 10:16:52;;;;;;;;;;;;;;;17.13;57.65;100759.50;5036200;28;981;-62
2022/07/28 10:19:17;;;;;;;;;;;;;;;17.10;57.71;100755.38;5032111;28;1056;-63
2022/07/28 10:21:43;;;;;;;;;;;;;;;17.09;57.76;100761.97;5038147;28;1081;-59
2022/07/28 10:24:09;;;;;;;;;;;;;;;17.06;57.74;100746.03;5037097;28;1069;-64
2022/07/28 10:26:38;;;;;;;;;;;;;;;17.18;57.41;100758.66;5017069;28;1905;-59
2022/07/28 10:29:06;;;;;;;;;;;;;;;17.13;57.76;100761.44;5040064;28;914;-60
2022/07/28 10:31:32;;;;;;;;;;;;;;;17.09;57.90;100761.97;5033450;28;1061;-59
2022/07/28 10:33:58;;;;;;;;;;;;;;;17.10;57.77;100752.63;5046735;28;1018;-62
2022/07/28 10:36:24;;;;;;;;;;;;;;;17.04;57.85;100745.50;5042971;28;1068;-63
2022/07/28 10:38:49;;;;;;;;;;;;;;;17.14;57.94;100754.81;5025570;28;1010;-60
2022/07/28 10:41:15;;;;;;;;;;;;;;;17.07;57.99;100755.13;5042457;28;1029;-59
2022/07/28 10:43:41;;;;;;;;;;;;;;;17.10;57.67;100751.81;5039876;28;974;-61
2022/07/28 10:46:06;;;;;;;;;;;;;;;17.12;57.98;100754.28;5023386;28;1913;-59
2022/07/28 10:48:32;;;;;;;;;;;;;;;17.17;57.58;100759.78;5037926;28;994;-60
2022/07/28 10:50:58;;;;;;;;;;;;;;;17.08;57.68;100760.34;5037075;28;1227;-59
2022/07/28 10:53:33;;;;;;;;;;;;;;;17.09;57.78;100756.47;5042771;28;1089;-57
2022/07/28 10:56:02;;;;;;;;;;;;;;;17.07;57.76;100757.88;5027205;28;1069;-60
2022/07/28 10:58:57;;;;;;;;;;;;;;;17.07;57.85;100761.44;5021408;28;1040;-59
2022/07/28 11:01:37;;;;;;;;;;;;;;;17.07;57.73;100761.44;5026211;28;1899;-61
2022/07/28 11:04:04;;;;;;;;;;;;;;;17.10;57.73;100763.59;5039432;28;958;-65
2022/07/28 11:06:30;;;;;;;;;;;;;;;17.02;57.96;100764.16;5023484;28;1906;-61
2022/07/28 11:09:02;;;;;;;;;;;;;;;17.09;57.91;100761.97;5038432;28;990;-61
2022/07/28 11:11:51;;;;;;;;;;;;;;;17.09;57.76;100763.88;5020569;28;1341;-61
2022/07/28 11:14:26;;;;;;;;;;;;;;;17.10;57.75;100763.59;5036988;28;978;-57
2022/07/28 11:17:04;;;;;;;;;;;;;;;17.07;57.90;100761.44;5031044;28;935;-62
2022/07/28 11:19:29;;;;;;;;;;;;;;;17.05;57.86;100758.13;5037112;28;962;-59
2022/07/28 11:22:13;;;;;;;;;;;;;;;17.03;57.51;100756.78;5036015;28;1013;-58
2022/07/28 11:24:54;;;;;;;;;;;;;;;17.07;57.61;100763.34;5036981;28;958;-61
2022/07/28 11:27:39;;;;;;;;;;;;;;;17.11;57.54;100767.19;5040086;28;1922;-60
2022/07/28 11:30:12;;;;;;;;;;;;;;;17.04;57.88;100770.22;5034951;28;1621;-62
2022/07/28 11:32:50;;;;;;;;;;;;;;;17.11;57.55;100764.44;5033094;28;1244;-61
2022/07/28 11:35:16;;;;;;;;;;;;;;;17.06;57.77;100761.72;5035647;28;1180;-59
2022/07/28 11:37:59;;;;;;;;;;;;;;;17.06;57.73;100757.03;5035590;28;1278;-60
2022/07/28 11:40:35;;;;;;;;;;;;;;;17.05;57.73;100763.59;5033663;28;1045;-60
2022/07/28 11:43:19;;;;;;;;;;;;;;;17.08;57.56;100771.31;5036362;28;1026;-61
2022/07/28 11:45:45;;;;;;;;;;;;;;;17.07;57.82;100764.16;5031882;28;1984;-62
2022/07/28 11:48:20;;;;;;;;;;;;;;;17.08;57.75;100763.09;5018365;28;1125;-64
2022/07/28 11:51:01;;;;;;;;;;;;;;;17.07;57.87;100758.69;5035811;28;1176;-58
2022/07/28 11:53:39;;;;;;;;;;;;;;;17.06;57.60;100768.00;5034715;28;1232;-59
2022/07/28 11:56:05;;;;;;;;;;;;;;;17.02;57.81;100763.34;5035728;28;1301;-58
2022/07/28 11:58:30;;;;;;;;;;;;;;;17.08;57.80;100763.09;5035620;28;1026;-58
2022/07/28 12:01:09;;;;;;;;;;;;;;;17.13;57.57;100764.19;5035465;28;1338;-59
2022/07/28 12:03:35;;;;;;;;;;;;;;;17.10;57.47;100768.28;5035497;28;1061;-60
2022/07/28 12:06:00;;;;;;;;;;;;;;;17.08;57.65;100765.81;5045838;28;1973;-58
2022/07/28 12:08:25;;;;;;;;;;;;;;;17.09;57.80;100767.44;5040464;28;1076;-59
2022/07/28 12:10:51;;;;;;;;;;;;;;;17.13;57.55;100767.72;5042037;28;1066;-60
2022/07/28 12:13:23;;;;;;;;;;;;;;;17.04;57.86;100761.97;5021957;28;1227;-59
2022/07/28 12:15:49;;;;;;;;;;;;;;;17.01;57.56;100756.22;5039298;28;998;-62
2022/07/28 12:18:14;;;;;;;;;;;;;;;17.10;57.62;100762.81;5037897;28;919;-60
2022/07/28 12:20:43;;;;;;;;;;;;;;;17.09;57.61;100767.44;5040760;28;958;-59
2022/07/28 12:23:09;;;;;;;;;;;;;;;17.07;57.69;100763.34;5040261;28;1002;-59
2022/07/28 12:25:40;;;;;;;;;;;;;;;17.04;57.73;100766.63;5044934;28;978;-59
2022/07/28 12:28:13;;;;;;;;;;;;;;;17.07;57.56;100769.66;5043296;28;1002;-57
2022/07/28 12:30:38;;;;;;;;;;;;;;;17.14;57.83;100763.06;5041161;28;994;-59
2022/07/28 12:33:14;;;;;;;;;;;;;;;17.14;57.82;100765.78;5038729;28;1187;-61
2022/07/28 12:35:39;;;;;;;;;;;;;;;17.10;57.71;100763.59;5039983;28;1148;-61
2022/07/28 12:38:05;;;;;;;;;;;;;;;17.05;57.79;100760.84;5021616;28;1125;-62
2022/07/28 12:40:30;;;;;;;;;;;;;;;17.15;58.01;100765.50;5027996;28;975;-62
2022/07/28 12:42:56;;;;;;;;;;;;;;;17.06;57.95;100768.00;5045437;28;1069;-60
2022/07/28 12:45:21;;;;;;;;;;;;;;;17.08;57.94;100763.09;5026627;28;1002;-62
2022/07/28 12:47:47;;;;;;;;;;;;;;;17.06;57.59;100756.22;5038593;28;1980;-61